Time;durP1;ratioP1;P1;durP2;ratioP2;P2;SDS_P1;SDS_P2;PMS_P1;PMS_P2;Temp;Humidity;BMP_temperature;BMP_pressure;BME280_temperature;BME280_humidity;BME280_pressure;Samples;Min_cycle;Max_cycle;Signal;HPM_P1;HPM_P2
2020/12/29 00:01:44;;;;;;;1.87;1.70;;;7.20;56.30;;;;;;5031468;28;20844;-42
2020/12/29 00:04:19;;;;;;;2.83;1.53;;;7.20;56.80;;;;;;5031842;28;20432;-42
2020/12/29 00:06:50;;;;;;;1.77;1.50;;;7.10;57.10;;;;;;5031248;28;20598;-42
2020/12/29 00:09:17;;;;;;;1.80;0.90;;;7.00;57.60;;;;;;5031776;28;20483;-42
2020/12/29 00:11:43;;;;;;;1.13;0.90;;;7.20;57.80;;;;;;5031194;28;21216;-42
2020/12/29 00:14:10;;;;;;;2.33;1.20;;;7.50;57.30;;;;;;5031872;28;20450;-42
2020/12/29 00:16:36;;;;;;;2.10;1.00;;;7.70;56.60;;;;;;5030702;28;20431;-42
2020/12/29 00:19:02;;;;;;;0.87;0.87;;;7.80;56.60;;;;;;5031680;28;20938;-42
2020/12/29 00:21:27;;;;;;;1.60;1.33;;;7.80;57.00;;;;;;5029924;28;20581;-42
2020/12/29 00:23:53;;;;;;;1.87;1.30;;;7.90;57.00;;;;;;5031399;28;20243;-42
2020/12/29 00:26:19;;;;;;;3.33;0.90;;;8.10;57.10;;;;;;5031323;28;20190;-42
2020/12/29 00:28:45;;;;;;;1.20;0.97;;;8.20;56.70;;;;;;5030843;28;20308;-42
2020/12/29 00:31:17;;;;;;;1.17;0.90;;;8.30;56.50;;;;;;5031451;28;20428;-42
2020/12/29 00:33:43;;;;;;;1.20;1.10;;;8.50;56.20;;;;;;5030860;28;20778;-42
2020/12/29 00:36:09;;;;;;;1.17;1.07;;;8.40;55.90;;;;;;5031163;28;20481;-42
2020/12/29 00:38:34;;;;;;;0.90;0.70;;;8.30;56.30;;;;;;5031154;28;20576;-42
2020/12/29 00:41:00;;;;;;;1.23;0.83;;;8.20;56.40;;;;;;5031414;28;20201;-42
2020/12/29 00:43:25;;;;;;;0.83;0.83;;;8.30;56.40;;;;;;5030765;28;20193;-42
2020/12/29 00:45:51;;;;;;;1.40;0.93;;;8.40;56.40;;;;;;5027941;28;20202;-42
2020/12/29 00:48:16;;;;;;;0.77;0.77;;;8.30;56.40;;;;;;5029082;28;20224;-43
2020/12/29 00:50:42;;;;;;;1.17;1.00;;;8.40;56.40;;;;;;5031369;28;20220;-42
2020/12/29 00:53:10;;;;;;;1.33;0.80;;;8.50;56.40;;;;;;5030959;28;20645;-42
2020/12/29 00:55:36;;;;;;;1.57;0.90;;;8.60;56.20;;;;;;5030514;28;20730;-42
2020/12/29 00:58:01;;;;;;;1.00;0.90;;;8.70;56.20;;;;;;5030497;28;20432;-42
2020/12/29 01:00:27;;;;;;;1.13;1.00;;;8.80;55.90;;;;;;5030995;28;20428;-42
2020/12/29 01:02:53;;;;;;;1.00;0.90;;;8.90;55.50;;;;;;5030591;28;20203;-42
2020/12/29 01:05:18;;;;;;;0.60;0.60;;;8.90;55.40;;;;;;5030779;28;20204;-42
2020/12/29 01:07:44;;;;;;;1.00;0.90;;;9.00;55.30;;;;;;5030762;28;20327;-42
2020/12/29 01:10:10;;;;;;;1.23;0.80;;;9.10;55.20;;;;;;5030756;28;20237;-42
2020/12/29 01:12:35;;;;;;;1.00;0.90;;;8.90;55.20;;;;;;5030229;28;20810;-42
2020/12/29 01:15:01;;;;;;;0.77;0.77;;;8.60;55.20;;;;;;5028913;28;20208;-42
2020/12/29 01:17:27;;;;;;;0.90;0.90;;;8.30;56.60;;;;;;5030412;28;20236;-42
2020/12/29 01:19:52;;;;;;;0.80;0.80;;;8.30;57.10;;;;;;5031088;28;20636;-42
2020/12/29 01:22:18;;;;;;;1.73;0.90;;;8.10;57.40;;;;;;5030158;28;20251;-42
2020/12/29 01:24:43;;;;;;;1.13;1.03;;;8.30;57.70;;;;;;5030390;28;20193;-42
2020/12/29 01:27:09;;;;;;;0.83;0.80;;;8.10;57.70;;;;;;5030186;28;20267;-42
2020/12/29 01:29:34;;;;;;;1.20;1.10;;;8.10;58.00;;;;;;5030684;28;20226;-42
2020/12/29 01:32:00;;;;;;;1.23;0.90;;;8.30;58.60;;;;;;5030281;28;20208;-42
2020/12/29 01:34:26;;;;;;;0.83;0.80;;;8.10;59.20;;;;;;5030412;28;20729;-42
2020/12/29 01:36:52;;;;;;;0.73;0.70;;;8.30;59.30;;;;;;5030163;28;20423;-42
2020/12/29 01:39:18;;;;;;;1.60;0.70;;;8.20;59.30;;;;;;5030625;28;20193;-42
2020/12/29 01:41:44;;;;;;;0.60;0.60;;;8.30;59.50;;;;;;5028746;28;20193;-42
2020/12/29 01:44:14;;;;;;;0.77;0.70;;;8.50;59.00;;;;;;5030193;28;20478;-43
2020/12/29 01:46:42;;;;;;;0.60;0.60;;;8.70;58.70;;;;;;5028276;28;20190;-43
2020/12/29 01:49:08;;;;;;;0.67;0.67;;;8.80;58.70;;;;;;5030153;28;20484;-42
2020/12/29 01:51:33;;;;;;;1.10;0.90;;;9.00;58.30;;;;;;5029965;28;20839;-43
2020/12/29 01:54:00;;;;;;;0.90;0.63;;;9.00;58.20;;;;;;5030652;28;20272;-42
2020/12/29 01:56:27;;;;;;;0.60;0.50;;;9.10;58.10;;;;;;5030172;28;20197;-42
2020/12/29 01:58:52;;;;;;;0.80;0.60;;;9.10;57.90;;;;;;5029053;28;20432;-42
2020/12/29 02:01:18;;;;;;;0.70;0.70;;;9.20;57.80;;;;;;5030574;28;20809;-42
2020/12/29 02:03:44;;;;;;;0.50;0.50;;;9.20;57.50;;;;;;5029890;28;20195;-42
2020/12/29 02:06:09;;;;;;;0.73;0.60;;;8.80;58.10;;;;;;5030128;28;20664;-42
2020/12/29 02:08:35;;;;;;;0.60;0.50;;;8.90;58.20;;;;;;5027862;28;20253;-42
2020/12/29 02:11:01;;;;;;;1.67;0.80;;;8.90;58.40;;;;;;5031545;28;20622;-42
2020/12/29 02:13:27;;;;;;;0.70;0.70;;;8.90;58.00;;;;;;5033424;28;20604;-42
2020/12/29 02:15:52;;;;;;;0.70;0.60;;;8.30;58.40;;;;;;5033591;28;20428;-43
2020/12/29 02:18:18;;;;;;;0.53;0.47;;;8.20;59.70;;;;;;5033505;28;20190;-42
2020/12/29 02:20:44;;;;;;;2.90;0.60;;;8.50;59.30;;;;;;5033981;28;20290;-42
2020/12/29 02:23:12;;;;;;;1.27;0.80;;;8.30;58.90;;;;;;5033390;28;20272;-42
2020/12/29 02:25:37;;;;;;;0.50;0.47;;;8.30;59.40;;;;;;5033515;28;20193;-42
2020/12/29 02:28:05;;;;;;;0.50;0.50;;;8.40;58.80;;;;;;5033112;28;20476;-42
2020/12/29 02:30:31;;;;;;;0.60;0.53;;;8.70;58.70;;;;;;5033774;28;20197;-42
2020/12/29 02:32:56;;;;;;;0.60;0.60;;;8.90;58.10;;;;;;5032869;28;20428;-42
2020/12/29 02:35:22;;;;;;;0.70;0.70;;;9.10;57.70;;;;;;5032472;28;20189;-42
2020/12/29 02:37:47;;;;;;;0.50;0.50;;;9.10;56.80;;;;;;5033154;28;20208;-42
2020/12/29 02:40:14;;;;;;;0.60;0.50;;;8.80;57.10;;;;;;5033803;28;20560;-42
2020/12/29 02:42:39;;;;;;;3.23;0.80;;;8.70;57.60;;;;;;5033019;28;20268;-42
2020/12/29 02:45:06;;;;;;;0.83;0.83;;;8.80;57.70;;;;;;5033142;28;20424;-42
2020/12/29 02:47:32;;;;;;;0.77;0.53;;;8.70;57.30;;;;;;5030716;28;20624;-42
2020/12/29 02:49:57;;;;;;;1.20;0.73;;;8.80;57.30;;;;;;5033200;28;20520;-42
2020/12/29 02:52:23;;;;;;;0.90;0.67;;;9.00;57.10;;;;;;5032706;28;20201;-42
2020/12/29 02:54:49;;;;;;;0.50;0.50;;;9.10;56.50;;;;;;5033111;28;20198;-42
2020/12/29 02:57:14;;;;;;;0.53;0.53;;;8.90;56.50;;;;;;5032472;28;20201;-42
2020/12/29 02:59:40;;;;;;;0.90;0.63;;;9.00;56.50;;;;;;5032828;28;20197;-42
2020/12/29 03:02:05;;;;;;;1.07;0.47;;;9.10;56.80;;;;;;5031889;28;20202;-42
2020/12/29 03:04:31;;;;;;;0.43;0.40;;;9.20;56.60;;;;;;5032478;28;20280;-42
2020/12/29 03:06:56;;;;;;;0.67;0.60;;;9.30;56.20;;;;;;5032289;28;20241;-42
2020/12/29 03:09:22;;;;;;;0.90;0.70;;;9.30;55.70;;;;;;5033143;28;20229;-42
2020/12/29 03:11:47;;;;;;;0.40;0.40;;;9.40;55.80;;;;;;5032576;28;20300;-42
2020/12/29 03:14:14;;;;;;;0.60;0.60;;;9.40;56.50;;;;;;5032702;28;20242;-42
2020/12/29 03:16:39;;;;;;;0.50;0.50;;;9.50;56.70;;;;;;5032052;28;20193;-42
2020/12/29 03:19:05;;;;;;;0.40;0.40;;;9.30;57.20;;;;;;5032900;28;20428;-42
2020/12/29 03:21:31;;;;;;;0.77;0.50;;;9.20;57.80;;;;;;5031915;28;20665;-42
2020/12/29 03:23:57;;;;;;;0.60;0.50;;;8.90;58.50;;;;;;5032426;28;20665;-42
2020/12/29 03:26:25;;;;;;;3.87;0.70;;;8.90;58.40;;;;;;5031949;28;20649;-42
2020/12/29 03:28:51;;;;;;;0.60;0.60;;;9.10;58.90;;;;;;5031614;28;20570;-42
2020/12/29 03:31:16;;;;;;;0.70;0.60;;;9.30;58.90;;;;;;5032677;28;20582;-42
2020/12/29 03:33:44;;;;;;;0.70;0.50;;;9.30;58.90;;;;;;5032288;28;20992;-42
2020/12/29 03:36:09;;;;;;;0.90;0.50;;;9.30;59.10;;;;;;5032065;28;20267;-42
2020/12/29 03:38:35;;;;;;;2.20;0.40;;;9.20;59.30;;;;;;5032176;28;20424;-42
2020/12/29 03:41:00;;;;;;;0.50;0.40;;;9.10;59.80;;;;;;5032478;28;20246;-42
2020/12/29 03:43:26;;;;;;;0.63;0.50;;;9.20;59.80;;;;;;5031930;28;20185;-42
2020/12/29 03:45:51;;;;;;;0.50;0.43;;;9.10;59.60;;;;;;5030296;28;20691;-42
2020/12/29 03:48:20;;;;;;;0.53;0.40;;;9.10;60.00;;;;;;5031640;28;20669;-42
2020/12/29 03:50:46;;;;;;;0.80;0.70;;;9.00;60.40;;;;;;5032251;28;20562;-42
2020/12/29 03:53:12;;;;;;;1.57;0.60;;;8.90;60.20;;;;;;5030532;28;20434;-42
2020/12/29 03:55:38;;;;;;;0.60;0.60;;;8.80;60.30;;;;;;5031674;28;20801;-42
2020/12/29 03:58:05;;;;;;;0.53;0.53;;;9.00;60.40;;;;;;5031838;28;20435;-42
2020/12/29 04:00:31;;;;;;;1.47;0.60;;;8.90;60.40;;;;;;5031919;28;20184;-42
2020/12/29 04:02:57;;;;;;;1.47;0.53;;;9.10;60.20;;;;;;5031479;28;20933;-42
2020/12/29 04:05:23;;;;;;;1.63;0.50;;;9.10;59.80;;;;;;5031621;28;20420;-42
2020/12/29 04:07:49;;;;;;;0.50;0.40;;;9.10;59.70;;;;;;5031284;28;20490;-42
2020/12/29 04:10:15;;;;;;;0.77;0.43;;;9.20;59.60;;;;;;5031871;28;20653;-42
2020/12/29 04:12:41;;;;;;;0.80;0.50;;;9.10;59.50;;;;;;5031196;28;20478;-42
2020/12/29 04:15:07;;;;;;;0.57;0.50;;;8.70;59.80;;;;;;5031512;28;20416;-42
2020/12/29 04:17:37;;;;;;;0.73;0.50;;;8.60;60.20;;;;;;5031233;28;20991;-42
2020/12/29 04:20:04;;;;;;;0.77;0.50;;;8.70;60.70;;;;;;5029880;28;20919;-42
2020/12/29 04:22:31;;;;;;;1.90;0.70;;;8.60;60.70;;;;;;5031251;28;20424;-42
2020/12/29 04:24:57;;;;;;;1.67;0.50;;;8.80;60.60;;;;;;5031015;28;20428;-42
2020/12/29 04:27:23;;;;;;;0.60;0.60;;;8.90;60.20;;;;;;5031070;28;20439;-42
2020/12/29 04:29:50;;;;;;;0.57;0.50;;;8.90;59.90;;;;;;5031577;28;20428;-42
2020/12/29 04:32:16;;;;;;;1.23;0.50;;;9.00;59.90;;;;;;5031124;28;20220;-42
2020/12/29 04:34:42;;;;;;;0.80;0.50;;;9.00;59.50;;;;;;5030334;28;20420;-42
2020/12/29 04:37:07;;;;;;;0.70;0.60;;;9.00;59.30;;;;;;5031027;28;20467;-42
2020/12/29 04:39:33;;;;;;;1.07;0.83;;;9.00;59.50;;;;;;5031462;28;20462;-42
2020/12/29 04:42:09;;;;;;;0.60;0.50;;;8.80;59.70;;;;;;5030854;28;20657;-42
2020/12/29 04:44:35;;;;;;;2.77;1.27;;;8.80;59.80;;;;;;5030735;28;20193;-42
2020/12/29 04:47:01;;;;;;;1.10;0.60;;;8.80;59.90;;;;;;5026181;28;20432;-42
2020/12/29 04:49:27;;;;;;;2.00;0.50;;;8.80;59.70;;;;;;5031123;28;20471;-42
2020/12/29 04:51:57;;;;;;;3.20;0.67;;;9.00;59.40;;;;;;5030883;28;20220;-42
2020/12/29 04:54:26;;;;;;;2.00;0.40;;;9.20;59.20;;;;;;5030544;28;20464;-42
2020/12/29 04:56:56;;;;;;;0.80;0.50;;;9.00;59.10;;;;;;5030682;28;20775;-42
2020/12/29 04:59:22;;;;;;;0.60;0.50;;;9.00;59.10;;;;;;5031295;28;20432;-42
2020/12/29 05:01:47;;;;;;;0.50;0.50;;;8.60;59.20;;;;;;5030558;28;20440;-42
2020/12/29 05:04:13;;;;;;;0.60;0.60;;;8.40;59.90;;;;;;5030855;28;20275;-42
2020/12/29 05:06:39;;;;;;;0.50;0.50;;;8.30;60.80;;;;;;5030227;28;20197;-42
2020/12/29 05:09:05;;;;;;;0.60;0.53;;;8.10;62.10;;;;;;5030913;28;20229;-42
2020/12/29 05:11:34;;;;;;;1.17;0.60;;;8.20;63.00;;;;;;5030435;28;20462;-42
2020/12/29 05:14:00;;;;;;;0.60;0.53;;;8.10;63.50;;;;;;5028874;28;20197;-42
2020/12/29 05:16:26;;;;;;;0.60;0.60;;;7.90;64.40;;;;;;5030550;28;20793;-42
2020/12/29 05:18:52;;;;;;;2.00;0.80;;;8.00;63.90;;;;;;5030925;28;20428;-42
2020/12/29 05:21:18;;;;;;;0.70;0.60;;;8.10;64.10;;;;;;5031021;28;20247;-42
2020/12/29 05:23:44;;;;;;;0.60;0.60;;;8.10;63.50;;;;;;5029969;28;20431;-42
2020/12/29 05:26:12;;;;;;;3.60;0.50;;;8.20;63.70;;;;;;5030640;28;20428;-42
2020/12/29 05:28:38;;;;;;;1.77;0.50;;;8.30;63.60;;;;;;5030376;28;20259;-42
2020/12/29 05:31:05;;;;;;;1.00;0.60;;;8.50;63.30;;;;;;5030644;28;20459;-42
2020/12/29 05:33:31;;;;;;;0.53;0.53;;;8.50;62.40;;;;;;5030205;28;20438;-42
2020/12/29 05:35:58;;;;;;;0.77;0.50;;;8.50;62.80;;;;;;5030301;28;20428;-42
2020/12/29 05:38:25;;;;;;;0.70;0.50;;;8.50;62.70;;;;;;5030118;28;20428;-42
2020/12/29 05:40:51;;;;;;;0.97;0.63;;;8.50;62.70;;;;;;5029285;28;20845;-42
2020/12/29 05:43:28;;;;;;;1.03;0.60;;;8.40;62.40;;;;;;5030233;28;20412;-42
2020/12/29 05:45:53;;;;;;;1.00;0.60;;;8.50;62.20;;;;;;5030444;28;20200;-42
2020/12/29 05:48:19;;;;;;;3.63;0.50;;;8.50;61.90;;;;;;5033878;28;20483;-42
2020/12/29 05:50:45;;;;;;;1.47;0.93;;;8.40;62.20;;;;;;5034457;28;20323;-42
2020/12/29 05:53:11;;;;;;;0.60;0.50;;;8.10;62.10;;;;;;5034007;28;20526;-42
2020/12/29 05:55:37;;;;;;;0.73;0.50;;;8.10;62.40;;;;;;5034157;28;20189;-42
2020/12/29 05:58:08;;;;;;;0.90;0.60;;;8.10;62.70;;;;;;5034137;28;20420;-42
2020/12/29 06:00:35;;;;;;;0.50;0.43;;;7.70;63.20;;;;;;5034316;28;20201;-42
2020/12/29 06:03:02;;;;;;;0.40;0.40;;;7.90;64.10;;;;;;5033892;28;20422;-42
2020/12/29 06:05:29;;;;;;;0.53;0.50;;;7.80;63.50;;;;;;5033797;28;20431;-42
2020/12/29 06:07:57;;;;;;;0.60;0.47;;;7.70;64.10;;;;;;5031858;28;20514;-42
2020/12/29 06:10:27;;;;;;;1.90;0.83;;;7.70;64.40;;;;;;5034248;28;20980;-42
2020/12/29 06:13:00;;;;;;;0.70;0.50;;;7.60;64.50;;;;;;5033916;28;20412;-42
2020/12/29 06:15:29;;;;;;;0.67;0.57;;;7.80;64.40;;;;;;5033541;28;20439;-42
2020/12/29 06:17:56;;;;;;;2.30;0.63;;;8.00;64.30;;;;;;5033726;28;20914;-42
2020/12/29 06:20:22;;;;;;;1.23;0.50;;;7.80;64.00;;;;;;5034204;28;20427;-42
2020/12/29 06:22:51;;;;;;;1.33;0.80;;;7.90;64.10;;;;;;5033652;28;20427;-42
2020/12/29 06:25:18;;;;;;;1.40;0.60;;;7.90;63.80;;;;;;5033618;28;20197;-42
2020/12/29 06:27:50;;;;;;;1.97;0.93;;;7.80;64.20;;;;;;5033399;28;20447;-42
2020/12/29 06:30:18;;;;;;;1.10;0.50;;;7.90;64.50;;;;;;5034056;28;20428;-42
2020/12/29 06:32:47;;;;;;;1.93;0.70;;;7.90;64.40;;;;;;5033209;28;20435;-42
2020/12/29 06:35:13;;;;;;;1.70;0.80;;;8.00;64.10;;;;;;5031868;28;20964;-43
2020/12/29 06:37:57;;;;;;;0.50;0.50;;;8.00;63.90;;;;;;5033004;28;20432;-42
2020/12/29 06:40:23;;;;;;;0.70;0.60;;;8.00;63.90;;;;;;5033697;28;20566;-42
2020/12/29 06:42:49;;;;;;;1.30;0.90;;;7.90;64.10;;;;;;5033048;28;20518;-42
2020/12/29 06:45:15;;;;;;;0.97;0.50;;;7.80;64.40;;;;;;5032738;28;20186;-42
2020/12/29 06:47:44;;;;;;;1.17;0.50;;;7.60;64.60;;;;;;5029890;28;20912;-42
2020/12/29 06:50:23;;;;;;;1.00;0.70;;;7.40;64.90;;;;;;5033452;28;20197;-42
2020/12/29 06:53:01;;;;;;;1.10;0.70;;;7.50;65.60;;;;;;5033043;28;20438;-42
2020/12/29 06:55:43;;;;;;;1.60;0.50;;;7.80;65.00;;;;;;5032867;28;21250;-42
2020/12/29 06:58:10;;;;;;;1.27;0.50;;;7.80;64.30;;;;;;5032017;28;20478;-42
2020/12/29 07:00:36;;;;;;;1.27;0.60;;;7.70;64.70;;;;;;5031588;28;20437;-42
2020/12/29 07:03:02;;;;;;;0.60;0.60;;;7.60;65.00;;;;;;5032803;28;20908;-42
2020/12/29 07:05:30;;;;;;;0.60;0.53;;;7.60;65.00;;;;;;5032557;28;20224;-42
2020/12/29 07:08:06;;;;;;;1.27;0.60;;;7.50;64.90;;;;;;5032586;28;20495;-42
2020/12/29 07:10:44;;;;;;;1.67;0.70;;;7.40;65.20;;;;;;5033016;28;20427;-42
2020/12/29 07:13:13;;;;;;;0.60;0.50;;;7.40;65.50;;;;;;5032154;28;20447;-42
2020/12/29 07:15:53;;;;;;;0.70;0.50;;;7.40;65.30;;;;;;5032725;28;20423;-42
2020/12/29 07:18:23;;;;;;;0.70;0.60;;;7.30;65.00;;;;;;5032607;28;20448;-42
2020/12/29 07:20:50;;;;;;;0.90;0.70;;;7.50;65.20;;;;;;5033095;28;20786;-42
2020/12/29 07:23:18;;;;;;;1.17;0.60;;;7.60;64.80;;;;;;5032294;28;20451;-42
2020/12/29 07:25:51;;;;;;;1.00;0.80;;;7.50;64.40;;;;;;5032552;28;20436;-42
2020/12/29 07:28:28;;;;;;;0.90;0.70;;;7.60;64.40;;;;;;5030577;28;20974;-42
2020/12/29 07:30:54;;;;;;;1.80;1.00;;;7.20;65.10;;;;;;5032909;28;20506;-42
2020/12/29 07:33:25;;;;;;;8.60;1.20;;;7.40;65.80;;;;;;5032084;28;20523;-42
2020/12/29 07:35:51;;;;;;;2.53;0.60;;;7.40;65.50;;;;;;5032107;28;20519;-42
2020/12/29 07:38:21;;;;;;;2.83;1.07;;;7.20;65.40;;;;;;5032237;28;20436;-42
2020/12/29 07:40:47;;;;;;;2.73;0.67;;;7.20;65.80;;;;;;5032483;28;20938;-42
2020/12/29 07:43:13;;;;;;;1.30;0.60;;;7.10;66.10;;;;;;5031827;28;20428;-42
2020/12/29 07:45:38;;;;;;;1.00;0.60;;;7.10;66.30;;;;;;5028040;28;20194;-42
2020/12/29 07:48:06;;;;;;;1.20;0.70;;;7.30;66.20;;;;;;5031807;28;20506;-43
2020/12/29 07:50:33;;;;;;;4.13;0.80;;;7.30;65.90;;;;;;5032274;28;20189;-41
2020/12/29 07:53:00;;;;;;;2.83;0.90;;;7.30;65.40;;;;;;5031641;28;20482;-42
2020/12/29 07:55:26;;;;;;;1.13;0.70;;;7.40;65.60;;;;;;5030376;28;20470;-42
2020/12/29 07:57:51;;;;;;;1.53;0.80;;;7.50;65.40;;;;;;5031880;28;20436;-42
2020/12/29 08:00:17;;;;;;;2.57;0.73;;;7.50;65.20;;;;;;5032181;28;20193;-42
2020/12/29 08:02:53;;;;;;;2.50;0.97;;;7.50;64.90;;;;;;5031733;28;20193;-42
2020/12/29 08:05:26;;;;;;;1.63;1.23;;;7.50;65.40;;;;;;5031717;28;20220;-42
2020/12/29 08:07:53;;;;;;;1.73;0.60;;;7.60;65.00;;;;;;5031347;28;20888;-42
2020/12/29 08:10:24;;;;;;;2.73;0.80;;;7.60;64.80;;;;;;5031876;28;20432;-42
2020/12/29 08:12:57;;;;;;;2.23;0.90;;;7.60;64.80;;;;;;5031385;28;20442;-42
2020/12/29 08:15:29;;;;;;;0.70;0.70;;;7.50;65.30;;;;;;5032047;28;20876;-43
2020/12/29 08:18:05;;;;;;;2.80;1.27;;;7.40;65.00;;;;;;5031234;28;21005;-42
2020/12/29 08:20:32;;;;;;;1.17;0.70;;;7.60;65.40;;;;;;5030130;28;20482;-42
2020/12/29 08:23:04;;;;;;;1.13;0.80;;;7.60;65.30;;;;;;5031273;28;20432;-42
2020/12/29 08:25:30;;;;;;;2.00;0.93;;;7.70;65.00;;;;;;5031616;28;20923;-42
2020/12/29 08:28:06;;;;;;;1.70;0.97;;;7.80;64.50;;;;;;5030979;28;20590;-42
2020/12/29 08:30:34;;;;;;;2.63;0.53;;;7.70;64.40;;;;;;5031697;28;20430;-42
2020/12/29 08:33:03;;;;;;;1.47;0.90;;;7.80;64.40;;;;;;5031022;28;20428;-42
2020/12/29 08:35:33;;;;;;;2.33;0.90;;;7.90;64.40;;;;;;5031057;28;20951;-42
2020/12/29 08:38:04;;;;;;;3.50;1.17;;;8.00;63.70;;;;;;5030674;28;20443;-42
2020/12/29 08:40:33;;;;;;;1.60;1.07;;;8.30;63.40;;;;;;5031181;28;20471;-42
2020/12/29 08:43:00;;;;;;;4.53;0.83;;;8.30;62.90;;;;;;5030698;28;20874;-42
2020/12/29 08:45:27;;;;;;;0.80;0.70;;;8.30;63.00;;;;;;5028972;28;20463;-42
2020/12/29 08:47:57;;;;;;;3.53;1.20;;;8.30;63.00;;;;;;5028451;28;20553;-42
2020/12/29 08:50:31;;;;;;;0.87;0.80;;;7.90;63.30;;;;;;5027495;28;20841;-42
2020/12/29 08:53:07;;;;;;;1.67;0.90;;;8.20;64.10;;;;;;5030835;28;20440;-42
2020/12/29 08:55:34;;;;;;;1.00;0.90;;;8.30;63.30;;;;;;5030826;28;20931;-42
2020/12/29 08:58:00;;;;;;;1.40;0.97;;;8.30;63.30;;;;;;5030751;28;20510;-42
2020/12/29 09:00:27;;;;;;;1.70;1.00;;;8.20;63.70;;;;;;5030958;28;20428;-42
2020/12/29 09:02:53;;;;;;;1.10;1.00;;;8.20;64.10;;;;;;5030630;28;20824;-42
2020/12/29 09:05:27;;;;;;;1.87;1.07;;;8.20;64.50;;;;;;5030785;28;20439;-42
2020/12/29 09:07:53;;;;;;;1.90;0.80;;;8.20;64.40;;;;;;5030392;28;20284;-42
2020/12/29 09:10:19;;;;;;;1.80;0.80;;;8.30;64.40;;;;;;5030826;28;20436;-42
2020/12/29 09:12:45;;;;;;;1.77;1.03;;;8.40;64.30;;;;;;5030472;28;20432;-42
2020/12/29 09:15:13;;;;;;;4.97;1.97;;;8.50;63.80;;;;;;5028951;28;20446;-42
2020/12/29 09:17:43;;;;;;;1.40;1.17;;;8.70;63.60;;;;;;5030261;28;20432;-42
2020/12/29 09:20:23;;;;;;;2.40;1.10;;;9.10;62.90;;;;;;5030295;28;20424;-42
2020/12/29 09:23:03;;;;;;;2.73;1.00;;;9.30;61.90;;;;;;5044114;28;20439;-43
2020/12/29 09:25:43;;;;;;;3.87;1.20;;;9.50;60.90;;;;;;5050483;28;20446;-42
2020/12/29 09:28:23;;;;;;;1.73;1.07;;;9.70;60.50;;;;;;5050227;28;20467;-42
2020/12/29 09:31:00;;;;;;;2.87;0.90;;;9.60;60.30;;;;;;5050619;28;20435;-42
2020/12/29 09:33:28;;;;;;;1.20;0.80;;;9.70;60.30;;;;;;5049862;28;20429;-42
2020/12/29 09:35:54;;;;;;;1.77;1.30;;;9.70;59.90;;;;;;5050682;28;20437;-42
2020/12/29 09:38:20;;;;;;;1.50;0.83;;;9.60;59.80;;;;;;5049963;28;20506;-42
2020/12/29 09:40:49;;;;;;;1.70;1.37;;;9.70;59.80;;;;;;5048968;28;20419;-42
2020/12/29 09:43:15;;;;;;;2.80;1.50;;;9.60;59.80;;;;;;5050012;28;20485;-42
2020/12/29 09:45:44;;;;;;;5.37;2.50;;;9.60;59.80;;;;;;5043268;28;20417;-42
2020/12/29 09:48:11;;;;;;;3.07;1.97;;;9.60;60.00;;;;;;5030002;28;20220;-42
2020/12/29 09:50:37;;;;;;;3.43;1.23;;;9.30;59.90;;;;;;5030322;28;20805;-42
2020/12/29 09:53:02;;;;;;;2.23;1.40;;;8.80;60.80;;;;;;5030161;28;20412;-42
2020/12/29 09:55:28;;;;;;;1.77;1.63;;;8.90;61.30;;;;;;5030472;28;20654;-42
2020/12/29 09:57:53;;;;;;;2.37;1.60;;;8.90;61.70;;;;;;5030371;28;20205;-42
2020/12/29 10:00:19;;;;;;;1.00;0.60;;;9.00;61.50;;;;;;5030358;28;20194;-42
2020/12/29 10:02:44;;;;;;;1.00;0.90;;;9.10;60.50;;;;;;5030090;28;20189;-43
2020/12/29 10:05:10;;;;;;;2.00;0.90;;;9.10;60.90;;;;;;5030131;28;20189;-42
2020/12/29 10:07:36;;;;;;;1.10;0.70;;;9.10;60.80;;;;;;5028318;28;20246;-42
2020/12/29 10:10:01;;;;;;;2.20;1.20;;;9.10;60.70;;;;;;5030453;28;20193;-42
2020/12/29 10:12:27;;;;;;;2.47;1.60;;;9.20;60.70;;;;;;5029920;28;20190;-42
2020/12/29 10:14:52;;;;;;;1.90;1.57;;;9.30;61.10;;;;;;5030278;28;20931;-42
2020/12/29 10:17:18;;;;;;;1.10;1.00;;;9.40;60.90;;;;;;5030013;28;20236;-42
2020/12/29 10:19:44;;;;;;;0.70;0.70;;;9.10;60.70;;;;;;5030485;28;20209;-42
2020/12/29 10:22:10;;;;;;;0.90;0.90;;;8.70;60.60;;;;;;5029757;28;20204;-42
2020/12/29 10:24:35;;;;;;;0.73;0.70;;;8.40;61.90;;;;;;5029752;28;20428;-42
2020/12/29 10:27:01;;;;;;;1.27;0.97;;;8.30;62.40;;;;;;5029963;28;20253;-42
2020/12/29 10:29:26;;;;;;;0.83;0.67;;;8.50;62.40;;;;;;5030418;28;20336;-42
2020/12/29 10:31:52;;;;;;;1.00;0.83;;;8.30;62.90;;;;;;5030821;28;20258;-42
2020/12/29 10:34:18;;;;;;;0.83;0.83;;;8.30;62.00;;;;;;5031952;28;20193;-42
2020/12/29 10:36:45;;;;;;;0.83;0.80;;;8.40;62.30;;;;;;5033173;28;20931;-42
2020/12/29 10:39:11;;;;;;;1.03;0.83;;;8.30;61.20;;;;;;5033619;28;20197;-42
2020/12/29 10:41:38;;;;;;;1.73;0.63;;;8.20;61.50;;;;;;5033007;28;20431;-42
2020/12/29 10:44:06;;;;;;;1.03;0.93;;;8.20;62.10;;;;;;5033229;28;20428;-42
2020/12/29 10:46:31;;;;;;;1.73;0.60;;;8.30;61.40;;;;;;5030603;28;20482;-42
2020/12/29 10:48:57;;;;;;;1.17;0.80;;;8.50;62.70;;;;;;5033256;28;20519;-42
2020/12/29 10:51:24;;;;;;;0.90;0.70;;;8.80;61.40;;;;;;5033311;28;20460;-42
2020/12/29 10:53:51;;;;;;;1.30;1.10;;;8.90;60.20;;;;;;5032753;28;20302;-42
2020/12/29 10:56:17;;;;;;;1.53;1.10;;;8.50;60.70;;;;;;5033520;28;20435;-42
2020/12/29 10:58:44;;;;;;;1.10;1.00;;;8.50;61.70;;;;;;5032738;28;20862;-42
2020/12/29 11:01:11;;;;;;;1.70;0.97;;;8.50;61.60;;;;;;5031731;28;20814;-42
2020/12/29 11:03:36;;;;;;;1.10;1.00;;;8.70;61.70;;;;;;5032297;28;20511;-42
2020/12/29 11:06:03;;;;;;;0.67;0.67;;;8.90;61.00;;;;;;5033327;28;20519;-42
2020/12/29 11:08:29;;;;;;;5.33;1.00;;;8.80;60.20;;;;;;5032270;28;20279;-42
2020/12/29 11:10:55;;;;;;;1.10;0.90;;;8.90;60.60;;;;;;5033282;28;20533;-42
2020/12/29 11:13:21;;;;;;;0.90;0.73;;;9.30;59.80;;;;;;5032111;28;20432;-42
2020/12/29 11:15:51;;;;;;;0.77;0.70;;;9.50;59.20;;;;;;5033085;28;20428;-42
2020/12/29 11:18:18;;;;;;;1.10;0.60;;;9.50;58.50;;;;;;5032536;28;20428;-42
2020/12/29 11:20:43;;;;;;;1.37;0.70;;;9.40;57.90;;;;;;5032887;28;20435;-42
2020/12/29 11:23:09;;;;;;;1.00;0.90;;;9.20;58.00;;;;;;5031570;28;20915;-42
2020/12/29 11:25:35;;;;;;;1.07;0.97;;;9.20;58.30;;;;;;5032936;28;20201;-42
2020/12/29 11:28:00;;;;;;;2.10;0.67;;;9.50;58.30;;;;;;5030719;28;20574;-42
2020/12/29 11:30:26;;;;;;;0.77;0.77;;;9.70;57.70;;;;;;5032987;28;20209;-42
2020/12/29 11:32:52;;;;;;;0.73;0.70;;;9.80;57.20;;;;;;5032185;28;20784;-42
2020/12/29 11:35:17;;;;;;;1.10;0.87;;;10.00;55.80;;;;;;5032249;28;20649;-42
2020/12/29 11:37:43;;;;;;;0.60;0.60;;;10.30;55.70;;;;;;5032119;28;20236;-42
2020/12/29 11:40:09;;;;;;;0.60;0.60;;;10.50;54.70;;;;;;5032454;28;20208;-43
2020/12/29 11:42:35;;;;;;;0.90;0.90;;;10.70;54.40;;;;;;5031767;28;20201;-42
2020/12/29 11:45:01;;;;;;;1.83;0.80;;;10.70;54.10;;;;;;5032469;28;20474;-42
2020/12/29 11:47:26;;;;;;;1.93;1.03;;;11.10;53.90;;;;;;5029220;28;20475;-42
2020/12/29 11:49:52;;;;;;;0.57;0.57;;;11.40;52.50;;;;;;5032324;28;20300;-42
2020/12/29 11:52:18;;;;;;;0.80;0.80;;;11.70;52.40;;;;;;5032083;28;20189;-42
2020/12/29 11:54:43;;;;;;;1.03;1.03;;;11.90;51.10;;;;;;5030198;28;20205;-43
2020/12/29 11:57:09;;;;;;;0.80;0.73;;;12.10;50.90;;;;;;5031828;28;20452;-42
2020/12/29 11:59:38;;;;;;;2.30;1.13;;;12.20;50.30;;;;;;5032361;28;20201;-42
2020/12/29 12:02:04;;;;;;;1.17;0.73;;;12.30;49.50;;;;;;5031459;28;20212;-42
2020/12/29 12:04:29;;;;;;;1.40;0.90;;;12.50;48.60;;;;;;5031800;28;20416;-42
2020/12/29 12:06:55;;;;;;;1.63;1.07;;;12.70;49.40;;;;;;5031474;28;20700;-43
2020/12/29 12:09:20;;;;;;;1.03;0.93;;;13.00;49.00;;;;;;5032216;28;20587;-43
2020/12/29 12:11:46;;;;;;;0.97;0.70;;;13.10;47.80;;;;;;5031369;28;20200;-42
2020/12/29 12:14:11;;;;;;;2.20;0.83;;;13.00;46.50;;;;;;5031591;28;20328;-42
2020/12/29 12:16:37;;;;;;;1.50;1.00;;;13.00;46.60;;;;;;5031164;28;20216;-42
2020/12/29 12:19:04;;;;;;;1.03;0.73;;;12.90;47.20;;;;;;5031832;28;20197;-42
2020/12/29 12:21:30;;;;;;;1.70;0.80;;;13.00;47.10;;;;;;5029787;28;20432;-43
2020/12/29 12:23:57;;;;;;;2.23;1.17;;;12.90;47.20;;;;;;5031383;28;20428;-43
2020/12/29 12:26:23;;;;;;;0.83;0.70;;;12.80;47.30;;;;;;5032179;28;20437;-42
2020/12/29 12:28:48;;;;;;;0.70;0.70;;;12.00;47.40;;;;;;5031106;28;21006;-42
2020/12/29 12:31:14;;;;;;;1.87;0.80;;;11.90;48.20;;;;;;5031533;28;20212;-42
2020/12/29 12:33:41;;;;;;;0.70;0.70;;;11.80;48.40;;;;;;5030608;28;20597;-42
2020/12/29 12:36:07;;;;;;;0.80;0.70;;;11.50;48.60;;;;;;5031515;28;20460;-42
2020/12/29 12:38:33;;;;;;;1.00;0.90;;;11.10;48.90;;;;;;5030939;28;20844;-42
2020/12/29 12:40:59;;;;;;;2.20;1.13;;;10.70;49.70;;;;;;5031323;28;20608;-43
2020/12/29 12:43:24;;;;;;;1.63;0.90;;;10.80;50.10;;;;;;5030809;28;20420;-42
2020/12/29 12:45:50;;;;;;;0.90;0.70;;;10.60;49.80;;;;;;5028329;28;20468;-42
2020/12/29 12:48:15;;;;;;;1.10;0.70;;;10.70;49.90;;;;;;5029025;28;20229;-42
2020/12/29 12:50:41;;;;;;;1.00;0.70;;;10.50;50.50;;;;;;5031277;28;20193;-42
2020/12/29 12:53:06;;;;;;;0.83;0.80;;;10.40;50.90;;;;;;5030707;28;20203;-42
2020/12/29 12:55:35;;;;;;;1.73;1.00;;;10.50;51.20;;;;;;5030552;28;20280;-42